OISY  Yasouj  Airport

Iran

Add Bookmark
ICAO OISY
Type Airport
Status Operational
Latitude
30° 42' 1" N
30.700500
Longitude
51° 32' 42" E
51.545101
Local (DST + 5) UTC (GMT + 4)
Jul 1, 2015 10:59 Jul 1, 2015 06:29
Sunrise-Sunset Local UTC
Begin Civil Twilight 05:35 01:05
Sunrise 06:03 01:33
Sunset 08:12 15:42
End Civil Twilight 08:39 16:09
VFR
VFR
MVFR
MVFR
IFR
IFR
LIFR
LIFR
Unknown
Unavailable

Current Weather

METAR Observed VFR
OISY 302200Z 00000KT CAVOK 21/02 Q1018 Tue, Jun 30, 2015 @ 22:00 UTC
(8 Hours, 29 Minutes ago)
Visual Flight Rules
Wind Visibility Conditions
Calm 10 km or more
  • No significant weather
Temperatures Readings Precipitation
Current Temp
21°C
70°F
Dewpoint
2°C
36°F
Humidity 29%
Altimeter 30.06" Hg
Sea Level Pressure 1,018 mb
Field Elevation
1,811 m
5,942 ft
None Recorded

Additional weather within a 92.6km radius of OISY

Map ICAO Location
OIAH 79.6km W/SW (240°)
VFR
VFR
MVFR
MVFR
IFR
IFR
LIFR
LIFR
Unknown
Unavailable
-
-

CheckWX.com is intended as a tool to help pilots better visualize weather data. It is not intended as a substitute for an official weather briefing obtained from a Flight Service Station. CheckWX.com does not meet the FAA requirements for an official pre-flight weather briefing. Therefore, it's important that pilots still call and obtain an official FSS pre-flight weather briefing.

© 2007-2015 CheckWX.com
06:29:47 UTC